sensor_id;sensor_type;location;lat;lon;timestamp;pressure;altitude;pressure_sealevel;temperature;humidity
49843;BME280;55559;48.898;9.184;2022-12-10T00:01:35;97244.59;;;0.58;100.00
49843;BME280;55559;48.898;9.184;2022-12-10T00:04:04;97238.09;;;0.63;100.00
49843;BME280;55559;48.898;9.184;2022-12-10T00:06:33;97244.34;;;0.61;100.00
49843;BME280;55559;48.898;9.184;2022-12-10T00:09:03;97242.59;;;0.61;100.00
49843;BME280;55559;48.898;9.184;2022-12-10T00:11:30;97238.31;;;0.47;100.00
49843;BME280;55559;48.898;9.184;2022-12-10T00:13:58;97243.22;;;0.52;100.00
49843;BME280;55559;48.898;9.184;2022-12-10T00:16:28;97244.91;;;0.53;100.00
49843;BME280;55559;48.898;9.184;2022-12-10T00:18:56;97248.75;;;0.60;100.00
49843;BME280;55559;48.898;9.184;2022-12-10T00:21:27;97241.00;;;0.59;100.00
49843;BME280;55559;48.898;9.184;2022-12-10T00:23:56;97247.41;;;0.54;100.00
49843;BME280;55559;48.898;9.184;2022-12-10T00:26:25;97246.88;;;0.62;100.00
49843;BME280;55559;48.898;9.184;2022-12-10T00:28:53;97243.22;;;0.65;100.00
49843;BME280;55559;48.898;9.184;2022-12-10T00:31:23;97240.38;;;0.55;100.00
49843;BME280;55559;48.898;9.184;2022-12-10T00:33:53;97246.53;;;0.54;100.00
49843;BME280;55559;48.898;9.184;2022-12-10T00:36:23;97241.44;;;0.52;100.00
49843;BME280;55559;48.898;9.184;2022-12-10T00:38:53;97244.91;;;0.53;100.00
49843;BME280;55559;48.898;9.184;2022-12-10T00:41:21;97242.28;;;0.53;100.00
49843;BME280;55559;48.898;9.184;2022-12-10T00:43:48;97239.88;;;0.63;100.00
49843;BME280;55559;48.898;9.184;2022-12-10T00:46:17;97238.50;;;0.57;100.00
49843;BME280;55559;48.898;9.184;2022-12-10T00:48:45;97234.22;;;0.56;100.00
49843;BME280;55559;48.898;9.184;2022-12-10T00:51:15;97230.75;;;0.55;100.00
49843;BME280;55559;48.898;9.184;2022-12-10T00:53:44;97231.00;;;0.52;100.00
49843;BME280;55559;48.898;9.184;2022-12-10T00:56:17;97239.13;;;0.48;100.00
49843;BME280;55559;48.898;9.184;2022-12-10T00:58:45;97240.78;;;0.49;100.00
49843;BME280;55559;48.898;9.184;2022-12-10T01:01:16;97242.88;;;0.44;100.00
49843;BME280;55559;48.898;9.184;2022-12-10T01:03:45;97246.66;;;0.40;100.00
49843;BME280;55559;48.898;9.184;2022-12-10T01:06:15;97264.75;;;0.43;100.00
49843;BME280;55559;48.898;9.184;2022-12-10T01:08:43;97259.22;;;0.47;100.00
49843;BME280;55559;48.898;9.184;2022-12-10T01:11:13;97263.94;;;0.55;100.00
49843;BME280;55559;48.898;9.184;2022-12-10T01:13:43;97262.56;;;0.62;100.00
49843;BME280;55559;48.898;9.184;2022-12-10T01:16:12;97270.31;;;0.51;100.00
49843;BME280;55559;48.898;9.184;2022-12-10T01:18:40;97285.06;;;0.52;100.00
49843;BME280;55559;48.898;9.184;2022-12-10T01:21:10;97279.72;;;0.53;100.00
49843;BME280;55559;48.898;9.184;2022-12-10T01:23:39;97276.47;;;0.50;100.00
49843;BME280;55559;48.898;9.184;2022-12-10T01:26:09;97284.72;;;0.44;100.00
49843;BME280;55559;48.898;9.184;2022-12-10T01:28:38;97287.25;;;0.45;100.00
49843;BME280;55559;48.898;9.184;2022-12-10T01:31:09;97291.44;;;0.48;100.00
49843;BME280;55559;48.898;9.184;2022-12-10T01:33:38;97299.69;;;0.42;100.00
49843;BME280;55559;48.898;9.184;2022-12-10T01:36:07;97295.28;;;0.42;100.00
49843;BME280;55559;48.898;9.184;2022-12-10T01:38:35;97297.28;;;0.39;100.00
49843;BME280;55559;48.898;9.184;2022-12-10T01:41:05;97294.75;;;0.37;100.00
49843;BME280;55559;48.898;9.184;2022-12-10T01:43:53;97306.06;;;0.38;100.00
49843;BME280;55559;48.898;9.184;2022-12-10T01:46:22;97306.06;;;0.38;100.00
49843;BME280;55559;48.898;9.184;2022-12-10T01:48:51;97308.69;;;0.38;100.00
49843;BME280;55559;48.898;9.184;2022-12-10T01:51:19;97309.13;;;0.44;100.00
49843;BME280;55559;48.898;9.184;2022-12-10T01:53:48;97306.31;;;0.47;100.00
49843;BME280;55559;48.898;9.184;2022-12-10T01:56:16;97307.34;;;0.45;100.00
49843;BME280;55559;48.898;9.184;2022-12-10T01:58:44;97305.34;;;0.35;100.00
49843;BME280;55559;48.898;9.184;2022-12-10T02:01:15;97306.06;;;0.38;100.00
49843;BME280;55559;48.898;9.184;2022-12-10T02:03:52;97305.22;;;0.37;100.00
49843;BME280;55559;48.898;9.184;2022-12-10T02:06:37;97312.34;;;0.35;100.00
49843;BME280;55559;48.898;9.184;2022-12-10T02:09:13;97302.50;;;0.39;100.00
49843;BME280;55559;48.898;9.184;2022-12-10T02:11:54;97300.13;;;0.35;100.00
49843;BME280;55559;48.898;9.184;2022-12-10T02:14:30;97303.56;;;0.36;100.00
49843;BME280;55559;48.898;9.184;2022-12-10T02:17:09;97299.34;;;0.33;100.00
49843;BME280;55559;48.898;9.184;2022-12-10T02:20:01;97289.97;;;0.31;100.00
49843;BME280;55559;48.898;9.184;2022-12-10T02:22:35;97295.28;;;0.29;100.00
49843;BME280;55559;48.898;9.184;2022-12-10T02:25:07;97292.88;;;0.26;100.00
49843;BME280;55559;48.898;9.184;2022-12-10T02:27:42;97295.38;;;0.28;100.00
49843;BME280;55559;48.898;9.184;2022-12-10T02:30:15;97291.94;;;0.27;100.00
49843;BME280;55559;48.898;9.184;2022-12-10T02:32:45;97294.56;;;0.27;100.00
49843;BME280;55559;48.898;9.184;2022-12-10T02:35:18;97289.22;;;0.29;100.00
49843;BME280;55559;48.898;9.184;2022-12-10T02:37:49;97281.25;;;0.30;100.00
49843;BME280;55559;48.898;9.184;2022-12-10T02:40:20;97284.19;;;0.26;100.00
49843;BME280;55559;48.898;9.184;2022-12-10T02:42:53;97287.69;;;0.39;100.00
49843;BME280;55559;48.898;9.184;2022-12-10T02:45:25;97285.56;;;0.31;100.00
49843;BME280;55559;48.898;9.184;2022-12-10T02:47:56;97282.31;;;0.28;100.00
49843;BME280;55559;48.898;9.184;2022-12-10T02:50:31;97284.94;;;0.28;100.00
49843;BME280;55559;48.898;9.184;2022-12-10T02:52:59;97288.16;;;0.31;100.00
49843;BME280;55559;48.898;9.184;2022-12-10T02:55:41;97275.09;;;0.31;100.00
49843;BME280;55559;48.898;9.184;2022-12-10T02:58:17;97272.16;;;0.23;100.00
49843;BME280;55559;48.898;9.184;2022-12-10T03:00:58;97267.22;;;0.18;100.00
49843;BME280;55559;48.898;9.184;2022-12-10T03:03:37;97270.06;;;0.15;100.00
49843;BME280;55559;48.898;9.184;2022-12-10T03:06:11;97261.88;;;0.07;100.00
49843;BME280;55559;48.898;9.184;2022-12-10T03:08:42;97256.94;;;0.03;100.00
49843;BME280;55559;48.898;9.184;2022-12-10T03:11:15;97256.31;;;-0.01;100.00
49843;BME280;55559;48.898;9.184;2022-12-10T03:13:50;97249.06;;;-0.10;100.00
49843;BME280;55559;48.898;9.184;2022-12-10T03:16:22;97259.59;;;-0.25;100.00
49843;BME280;55559;48.898;9.184;2022-12-10T03:18:56;97256.63;;;-0.33;100.00
49843;BME280;55559;48.898;9.184;2022-12-10T03:21:26;97257.78;;;-0.37;100.00
49843;BME280;55559;48.898;9.184;2022-12-10T03:23:58;97269.44;;;-0.43;100.00
49843;BME280;55559;48.898;9.184;2022-12-10T03:26:26;97268.50;;;-0.42;100.00
49843;BME280;55559;48.898;9.184;2022-12-10T03:28:57;97281.16;;;-0.35;100.00
49843;BME280;55559;48.898;9.184;2022-12-10T03:31:30;97273.75;;;-0.29;100.00
49843;BME280;55559;48.898;9.184;2022-12-10T03:33:58;97271.59;;;-0.22;100.00
49843;BME280;55559;48.898;9.184;2022-12-10T03:36:27;97272.69;;;-0.12;100.00
49843;BME280;55559;48.898;9.184;2022-12-10T03:38:56;97272.47;;;-0.09;100.00
49843;BME280;55559;48.898;9.184;2022-12-10T03:41:24;97261.41;;;-0.12;100.00
49843;BME280;55559;48.898;9.184;2022-12-10T03:43:53;97257.94;;;-0.13;100.00
49843;BME280;55559;48.898;9.184;2022-12-10T03:46:21;97250.59;;;-0.21;100.00
49843;BME280;55559;48.898;9.184;2022-12-10T03:48:51;97249.13;;;-0.25;100.00
49843;BME280;55559;48.898;9.184;2022-12-10T03:51:19;97253.00;;;-0.30;100.00
49843;BME280;55559;48.898;9.184;2022-12-10T03:53:47;97260.94;;;-0.32;100.00
49843;BME280;55559;48.898;9.184;2022-12-10T03:56:16;97262.03;;;-0.36;100.00
49843;BME280;55559;48.898;9.184;2022-12-10T03:58:44;97263.63;;;-0.33;100.00
49843;BME280;55559;48.898;9.184;2022-12-10T04:01:13;97283.66;;;-0.34;100.00
49843;BME280;55559;48.898;9.184;2022-12-10T04:03:41;97298.31;;;-0.31;100.00
49843;BME280;55559;48.898;9.184;2022-12-10T04:06:13;97305.03;;;-0.27;100.00
49843;BME280;55559;48.898;9.184;2022-12-10T04:08:41;97312.66;;;-0.24;100.00
49843;BME280;55559;48.898;9.184;2022-12-10T04:11:10;97308.94;;;-0.20;100.00
49843;BME280;55559;48.898;9.184;2022-12-10T04:13:38;97309.66;;;-0.18;100.00
49843;BME280;55559;48.898;9.184;2022-12-10T04:16:24;97304.03;;;-0.12;100.00
49843;BME280;55559;48.898;9.184;2022-12-10T04:18:56;97310.41;;;-0.16;100.00
49843;BME280;55559;48.898;9.184;2022-12-10T04:21:26;97299.22;;;-0.18;100.00
49843;BME280;55559;48.898;9.184;2022-12-10T04:24:11;97296.19;;;-0.12;100.00
49843;BME280;55559;48.898;9.184;2022-12-10T04:26:59;97299.69;;;-0.26;100.00
49843;BME280;55559;48.898;9.184;2022-12-10T04:29:30;97299.50;;;-0.23;100.00
49843;BME280;55559;48.898;9.184;2022-12-10T04:31:57;97299.94;;;-0.16;100.00
49843;BME280;55559;48.898;9.184;2022-12-10T04:34:25;97305.09;;;-0.14;100.00
49843;BME280;55559;48.898;9.184;2022-12-10T04:36:54;97309.13;;;-0.23;100.00
49843;BME280;55559;48.898;9.184;2022-12-10T04:39:22;97310.88;;;-0.24;100.00
49843;BME280;55559;48.898;9.184;2022-12-10T04:41:50;97321.13;;;-0.21;100.00
49843;BME280;55559;48.898;9.184;2022-12-10T04:44:17;97324.63;;;-0.20;100.00
49843;BME280;55559;48.898;9.184;2022-12-10T04:46:45;97316.78;;;-0.20;100.00
49843;BME280;55559;48.898;9.184;2022-12-10T04:49:15;97318.78;;;-0.11;100.00
49843;BME280;55559;48.898;9.184;2022-12-10T04:51:43;97320.84;;;-0.16;100.00
49843;BME280;55559;48.898;9.184;2022-12-10T04:54:12;97322.09;;;-0.22;100.00
49843;BME280;55559;48.898;9.184;2022-12-10T04:56:40;97324.81;;;-0.23;100.00
49843;BME280;55559;48.898;9.184;2022-12-10T04:59:09;97335.34;;;-0.25;100.00
49843;BME280;55559;48.898;9.184;2022-12-10T05:01:36;97334.53;;;-0.25;100.00
49843;BME280;55559;48.898;9.184;2022-12-10T05:04:06;97337.00;;;-0.24;100.00
49843;BME280;55559;48.898;9.184;2022-12-10T05:06:34;97332.63;;;-0.23;100.00
49843;BME280;55559;48.898;9.184;2022-12-10T05:09:02;97333.91;;;-0.16;100.00
49843;BME280;55559;48.898;9.184;2022-12-10T05:11:33;97325.25;;;-0.16;100.00
49843;BME280;55559;48.898;9.184;2022-12-10T05:14:01;97330.03;;;-0.23;100.00
49843;BME280;55559;48.898;9.184;2022-12-10T05:16:30;97320.31;;;-0.21;100.00
49843;BME280;55559;48.898;9.184;2022-12-10T05:18:58;97319.22;;;-0.31;100.00
49843;BME280;55559;48.898;9.184;2022-12-10T05:21:29;97320.50;;;-0.24;100.00
49843;BME280;55559;48.898;9.184;2022-12-10T05:24:17;97320.50;;;-0.24;100.00
49843;BME280;55559;48.898;9.184;2022-12-10T05:26:45;97317.88;;;-0.24;100.00
49843;BME280;55559;48.898;9.184;2022-12-10T05:29:17;97318.72;;;-0.24;100.00
49843;BME280;55559;48.898;9.184;2022-12-10T05:31:44;97319.03;;;-0.28;100.00
49843;BME280;55559;48.898;9.184;2022-12-10T05:34:12;97326.88;;;-0.28;100.00
49843;BME280;55559;48.898;9.184;2022-12-10T05:36:39;97332.63;;;-0.23;100.00
49843;BME280;55559;48.898;9.184;2022-12-10T05:39:07;97331.78;;;-0.24;100.00
49843;BME280;55559;48.898;9.184;2022-12-10T05:41:38;97332.53;;;-0.22;100.00
49843;BME280;55559;48.898;9.184;2022-12-10T05:44:08;97332.91;;;-0.28;100.00
49843;BME280;55559;48.898;9.184;2022-12-10T05:46:36;97338.44;;;-0.32;100.00
49843;BME280;55559;48.898;9.184;2022-12-10T05:49:05;97345.25;;;-0.30;100.00
49843;BME280;55559;48.898;9.184;2022-12-10T05:51:35;97344.84;;;-0.24;100.00
49843;BME280;55559;48.898;9.184;2022-12-10T05:54:05;97340.03;;;-0.30;100.00
49843;BME280;55559;48.898;9.184;2022-12-10T05:56:33;97348.78;;;-0.31;100.00
49843;BME280;55559;48.898;9.184;2022-12-10T05:59:01;97353.28;;;-0.33;100.00
49843;BME280;55559;48.898;9.184;2022-12-10T06:01:32;97347.22;;;-0.33;100.00
49843;BME280;55559;48.898;9.184;2022-12-10T06:04:02;97339.19;;;-0.30;100.00
49843;BME280;55559;48.898;9.184;2022-12-10T06:06:32;97347.59;;;-0.25;100.00
49843;BME280;55559;48.898;9.184;2022-12-10T06:09:00;97349.94;;;-0.35;100.00
49843;BME280;55559;48.898;9.184;2022-12-10T06:11:28;97352.44;;;-0.33;100.00
49843;BME280;55559;48.898;9.184;2022-12-10T06:13:57;97354.88;;;-0.30;100.00
49843;BME280;55559;48.898;9.184;2022-12-10T06:16:26;97357.75;;;-0.35;100.00
49843;BME280;55559;48.898;9.184;2022-12-10T06:18:56;97363.81;;;-0.34;100.00
49843;BME280;55559;48.898;9.184;2022-12-10T06:21:24;97355.97;;;-0.34;100.00
49843;BME280;55559;48.898;9.184;2022-12-10T06:23:52;97359.88;;;-0.27;100.00
49843;BME280;55559;48.898;9.184;2022-12-10T06:26:22;97358.31;;;-0.30;100.00
49843;BME280;55559;48.898;9.184;2022-12-10T06:28:51;97358.41;;;-0.31;100.00
49843;BME280;55559;48.898;9.184;2022-12-10T06:31:18;97363.06;;;-0.36;100.00
49843;BME280;55559;48.898;9.184;2022-12-10T06:33:46;97361.28;;;-0.36;100.00
49843;BME280;55559;48.898;9.184;2022-12-10T06:36:16;97361.09;;;-0.33;100.00
49843;BME280;55559;48.898;9.184;2022-12-10T06:38:44;97371.09;;;-0.25;100.00
49843;BME280;55559;48.898;9.184;2022-12-10T06:41:14;97383.19;;;-0.24;100.00
49843;BME280;55559;48.898;9.184;2022-12-10T06:43:42;97380.88;;;-0.29;100.00
49843;BME280;55559;48.898;9.184;2022-12-10T06:46:12;97382.56;;;-0.28;100.00
49843;BME280;55559;48.898;9.184;2022-12-10T06:48:40;97389.16;;;-0.22;100.00
49843;BME280;55559;48.898;9.184;2022-12-10T06:51:08;97384.88;;;-0.23;100.00
49843;BME280;55559;48.898;9.184;2022-12-10T06:53:39;97379.47;;;-0.20;100.00
49843;BME280;55559;48.898;9.184;2022-12-10T06:56:07;97380.78;;;-0.27;100.00
49843;BME280;55559;48.898;9.184;2022-12-10T06:58:35;97382.84;;;-0.32;100.00
49843;BME280;55559;48.898;9.184;2022-12-10T07:01:05;97385.34;;;-0.31;100.00
49843;BME280;55559;48.898;9.184;2022-12-10T07:03:33;97382.75;;;-0.31;100.00
49843;BME280;55559;48.898;9.184;2022-12-10T07:06:01;97384.72;;;-0.34;100.00
49843;BME280;55559;48.898;9.184;2022-12-10T07:08:29;97379.47;;;-0.20;100.00
49843;BME280;55559;48.898;9.184;2022-12-10T07:10:58;97391.78;;;-0.22;100.00
49843;BME280;55559;48.898;9.184;2022-12-10T07:13:25;97397.31;;;-0.27;100.00
49843;BME280;55559;48.898;9.184;2022-12-10T07:15:53;97389.25;;;-0.24;100.00
49843;BME280;55559;48.898;9.184;2022-12-10T07:18:20;97385.81;;;-0.24;100.00
49843;BME280;55559;48.898;9.184;2022-12-10T07:20:48;97387.59;;;-0.25;100.00
49843;BME280;55559;48.898;9.184;2022-12-10T07:23:15;97388.25;;;-0.21;100.00
49843;BME280;55559;48.898;9.184;2022-12-10T07:25:43;97389.06;;;-0.21;100.00
49843;BME280;55559;48.898;9.184;2022-12-10T07:28:12;97398.41;;;-0.16;100.00
49843;BME280;55559;48.898;9.184;2022-12-10T07:30:39;97398.22;;;-0.13;100.00
49843;BME280;55559;48.898;9.184;2022-12-10T07:33:07;97403.00;;;-0.20;100.00
49843;BME280;55559;48.898;9.184;2022-12-10T07:35:34;97402.69;;;-0.15;100.00
49843;BME280;55559;48.898;9.184;2022-12-10T07:38:04;97416.59;;;-0.15;100.00
49843;BME280;55559;48.898;9.184;2022-12-10T07:40:32;97415.56;;;-0.12;100.00
49843;BME280;55559;48.898;9.184;2022-12-10T07:42:59;97411.06;;;-0.10;100.00
49843;BME280;55559;48.898;9.184;2022-12-10T07:45:28;97416.59;;;-0.15;100.00
49843;BME280;55559;48.898;9.184;2022-12-10T07:47:56;97418.63;;;-0.06;100.00
49843;BME280;55559;48.898;9.184;2022-12-10T07:50:23;97424.03;;;-0.09;100.00
49843;BME280;55559;48.898;9.184;2022-12-10T07:52:51;97431.78;;;-0.07;100.00
49843;BME280;55559;48.898;9.184;2022-12-10T07:55:18;97422.34;;;0.05;100.00
49843;BME280;55559;48.898;9.184;2022-12-10T07:57:46;97426.47;;;0.09;100.00
49843;BME280;55559;48.898;9.184;2022-12-10T08:00:14;97431.69;;;0.09;100.00
49843;BME280;55559;48.898;9.184;2022-12-10T08:02:43;97429.25;;;0.06;100.00
49843;BME280;55559;48.898;9.184;2022-12-10T08:05:10;97432.69;;;0.06;100.00
49843;BME280;55559;48.898;9.184;2022-12-10T08:07:38;97431.69;;;0.09;100.00
49843;BME280;55559;48.898;9.184;2022-12-10T08:10:06;97431.22;;;0.02;100.00
49843;BME280;55559;48.898;9.184;2022-12-10T08:12:33;97437.66;;;0.11;100.00
49843;BME280;55559;48.898;9.184;2022-12-10T08:15:01;97437.16;;;0.18;100.00
49843;BME280;55559;48.898;9.184;2022-12-10T08:17:30;97441.34;;;0.21;100.00
49843;BME280;55559;48.898;9.184;2022-12-10T08:19:59;97443.78;;;0.24;100.00
49843;BME280;55559;48.898;9.184;2022-12-10T08:22:26;97466.22;;;0.14;100.00
49843;BME280;55559;48.898;9.184;2022-12-10T08:24:54;97453.97;;;0.14;100.00
49843;BME280;55559;48.898;9.184;2022-12-10T08:27:21;97459.38;;;0.11;100.00
49843;BME280;55559;48.898;9.184;2022-12-10T08:29:49;97456.31;;;0.19;100.00
49843;BME280;55559;48.898;9.184;2022-12-10T08:32:16;97447.13;;;0.26;100.00
49843;BME280;55559;48.898;9.184;2022-12-10T08:34:44;97443.78;;;0.24;100.00
49843;BME280;55559;48.898;9.184;2022-12-10T08:37:13;97447.31;;;0.23;100.00
49843;BME280;55559;48.898;9.184;2022-12-10T08:39:40;97450.53;;;0.14;100.00
49843;BME280;55559;48.898;9.184;2022-12-10T08:42:11;97443.69;;;0.26;100.00
49843;BME280;55559;48.898;9.184;2022-12-10T08:44:39;97442.63;;;0.28;100.00
49843;BME280;55559;48.898;9.184;2022-12-10T08:47:06;97435.94;;;0.24;100.00
49843;BME280;55559;48.898;9.184;2022-12-10T08:49:34;97437.59;;;0.25;100.00
49843;BME280;55559;48.898;9.184;2022-12-10T08:52:01;97436.38;;;0.31;100.00
49843;BME280;55559;48.898;9.184;2022-12-10T08:54:31;97440.09;;;0.41;100.00
49843;BME280;55559;48.898;9.184;2022-12-10T08:56:58;97448.91;;;0.53;100.00
49843;BME280;55559;48.898;9.184;2022-12-10T08:59:25;97452.06;;;0.31;100.00
49843;BME280;55559;48.898;9.184;2022-12-10T09:01:53;97458.88;;;0.33;100.00
49843;BME280;55559;48.898;9.184;2022-12-10T09:04:20;97464.06;;;0.48;100.00
49843;BME280;55559;48.898;9.184;2022-12-10T09:06:47;97461.75;;;0.43;100.00
49843;BME280;55559;48.898;9.184;2022-12-10T09:09:16;97463.09;;;0.36;100.00
49843;BME280;55559;48.898;9.184;2022-12-10T09:11:45;97466.88;;;0.45;100.00
49843;BME280;55559;48.898;9.184;2022-12-10T09:14:13;97478.63;;;0.52;100.00
49843;BME280;55559;48.898;9.184;2022-12-10T09:16:40;97466.97;;;0.43;100.00
49843;BME280;55559;48.898;9.184;2022-12-10T09:19:08;97470.69;;;0.53;100.00
49843;BME280;55559;48.898;9.184;2022-12-10T09:21:35;97464.63;;;0.53;100.00
49843;BME280;55559;48.898;9.184;2022-12-10T09:24:04;97467.03;;;0.56;100.00
49843;BME280;55559;48.898;9.184;2022-12-10T09:26:31;97466.84;;;0.59;100.00
49843;BME280;55559;48.898;9.184;2022-12-10T09:29:00;97476.25;;;0.62;100.00
49843;BME280;55559;48.898;9.184;2022-12-10T09:31:28;97482.75;;;0.69;100.00
49843;BME280;55559;48.898;9.184;2022-12-10T09:33:56;97474.63;;;0.73;100.00
49843;BME280;55559;48.898;9.184;2022-12-10T09:36:24;97479.13;;;0.71;100.00
49843;BME280;55559;48.898;9.184;2022-12-10T09:38:51;97476.75;;;0.81;100.00
49843;BME280;55559;48.898;9.184;2022-12-10T09:44:22;97485.97;;;0.87;100.00
49843;BME280;55559;48.898;9.184;2022-12-10T09:46:55;97492.56;;;0.92;100.00
49843;BME280;55559;48.898;9.184;2022-12-10T09:49:33;97494.53;;;0.76;100.00
49843;BME280;55559;48.898;9.184;2022-12-10T09:52:08;97490.78;;;0.80;100.00
49843;BME280;55559;48.898;9.184;2022-12-10T09:54:40;97484.25;;;0.73;100.00
49843;BME280;55559;48.898;9.184;2022-12-10T09:57:18;97482.72;;;0.83;100.00
49843;BME280;55559;48.898;9.184;2022-12-10T09:59:50;97483.34;;;0.87;100.00
49843;BME280;55559;48.898;9.184;2022-12-10T10:02:21;97481.22;;;1.06;100.00
49843;BME280;55559;48.898;9.184;2022-12-10T10:04:50;97484.53;;;0.96;100.00
49843;BME280;55559;48.898;9.184;2022-12-10T10:07:21;97493.94;;;0.85;100.00
49843;BME280;55559;48.898;9.184;2022-12-10T10:09:52;97492.91;;;0.88;100.00
49843;BME280;55559;48.898;9.184;2022-12-10T10:12:22;97492.28;;;0.97;100.00
49843;BME280;55559;48.898;9.184;2022-12-10T10:14:51;97480.56;;;1.03;100.00
49843;BME280;55559;48.898;9.184;2022-12-10T10:17:21;97481.22;;;1.06;100.00
49843;BME280;55559;48.898;9.184;2022-12-10T10:19:50;97483.50;;;0.98;100.00
49843;BME280;55559;48.898;9.184;2022-12-10T10:22:17;97485.78;;;0.90;100.00
49843;BME280;55559;48.898;9.184;2022-12-10T10:24:46;97468.66;;;1.11;100.00
49843;BME280;55559;48.898;9.184;2022-12-10T10:27:15;97475.16;;;1.19;100.00
49843;BME280;55559;48.898;9.184;2022-12-10T10:29:44;97477.47;;;1.23;100.00
49843;BME280;55559;48.898;9.184;2022-12-10T10:32:17;97475.34;;;1.16;100.00
49843;BME280;55559;48.898;9.184;2022-12-10T10:34:47;97472.34;;;1.22;100.00
49843;BME280;55559;48.898;9.184;2022-12-10T10:37:20;97465.81;;;1.15;100.00
49843;BME280;55559;48.898;9.184;2022-12-10T10:39:49;97478.34;;;1.37;100.00
49843;BME280;55559;48.898;9.184;2022-12-10T10:42:27;97475.06;;;1.20;100.00
49843;BME280;55559;48.898;9.184;2022-12-10T10:44:55;97477.56;;;1.35;100.00
49843;BME280;55559;48.898;9.184;2022-12-10T10:47:29;97478.75;;;1.43;100.00
49843;BME280;55559;48.898;9.184;2022-12-10T10:49:57;97470.97;;;1.29;100.00
49843;BME280;55559;48.898;9.184;2022-12-10T10:52:28;97473.31;;;1.34;100.00
49843;BME280;55559;48.898;9.184;2022-12-10T10:54:56;97478.44;;;1.35;100.00
49843;BME280;55559;48.898;9.184;2022-12-10T10:57:26;97481.97;;;1.34;100.00
49843;BME280;55559;48.898;9.184;2022-12-10T11:00:00;97468.25;;;1.30;100.00
49843;BME280;55559;48.898;9.184;2022-12-10T11:02:33;97487.09;;;1.23;100.00
49843;BME280;55559;48.898;9.184;2022-12-10T11:05:05;97485.63;;;1.19;100.00
49843;BME280;55559;48.898;9.184;2022-12-10T11:07:35;97479.56;;;1.31;100.00
49843;BME280;55559;48.898;9.184;2022-12-10T11:10:16;97489.75;;;1.48;100.00
49843;BME280;55559;48.898;9.184;2022-12-10T11:12:46;97477.69;;;1.33;100.00
49843;BME280;55559;48.898;9.184;2022-12-10T11:15:32;97497.50;;;1.37;100.00
49843;BME280;55559;48.898;9.184;2022-12-10T11:18:09;97502.44;;;1.55;100.00
49843;BME280;55559;48.898;9.184;2022-12-10T11:20:56;97497.41;;;1.64;100.00
49843;BME280;55559;48.898;9.184;2022-12-10T11:23:27;97493.94;;;1.51;100.00
49843;BME280;55559;48.898;9.184;2022-12-10T11:26:02;97499.94;;;1.79;100.00
49843;BME280;55559;48.898;9.184;2022-12-10T11:28:41;97501.59;;;1.54;100.00
49843;BME280;55559;48.898;9.184;2022-12-10T11:31:28;97508.84;;;1.51;100.00
49843;BME280;55559;48.898;9.184;2022-12-10T11:34:06;97505.78;;;1.57;100.00
49843;BME280;55559;48.898;9.184;2022-12-10T11:36:40;97501.69;;;1.53;100.00
49843;BME280;55559;48.898;9.184;2022-12-10T11:39:22;97500.78;;;1.54;100.00
49843;BME280;55559;48.898;9.184;2022-12-10T11:41:57;97499.72;;;1.56;100.00
49843;BME280;55559;48.898;9.184;2022-12-10T11:44:36;97501.63;;;1.67;100.00
49843;BME280;55559;48.898;9.184;2022-12-10T11:47:29;97500.25;;;1.48;100.00
49843;BME280;55559;48.898;9.184;2022-12-10T11:50:15;97492.88;;;1.41;100.00
49843;BME280;55559;48.898;9.184;2022-12-10T11:53:02;97494.88;;;1.50;100.00
49843;BME280;55559;48.898;9.184;2022-12-10T11:55:42;97492.38;;;1.74;100.00
49843;BME280;55559;48.898;9.184;2022-12-10T11:58:26;97492.59;;;1.71;100.00
49843;BME280;55559;48.898;9.184;2022-12-10T12:01:00;97497.00;;;1.71;100.00
49843;BME280;55559;48.898;9.184;2022-12-10T12:03:38;97496.75;;;1.74;100.00
49843;BME280;55559;48.898;9.184;2022-12-10T12:06:26;97489.00;;;1.98;100.00
49843;BME280;55559;48.898;9.184;2022-12-10T12:09:06;97486.38;;;1.85;100.00
49843;BME280;55559;48.898;9.184;2022-12-10T12:11:59;97489.09;;;1.83;100.00
49843;BME280;55559;48.898;9.184;2022-12-10T12:14:33;97502.00;;;1.74;100.00
49843;BME280;55559;48.898;9.184;2022-12-10T12:17:09;97505.06;;;1.67;100.00
49843;BME280;55559;48.898;9.184;2022-12-10T12:19:39;97504.53;;;1.75;100.00
49843;BME280;55559;48.898;9.184;2022-12-10T12:22:15;97498.34;;;1.76;100.00
49843;BME280;55559;48.898;9.184;2022-12-10T12:24:42;97502.84;;;1.87;100.00
49843;BME280;55559;48.898;9.184;2022-12-10T12:27:24;97500.88;;;1.91;100.00
49843;BME280;55559;48.898;9.184;2022-12-10T12:30:02;97498.25;;;1.65;100.00
49843;BME280;55559;48.898;9.184;2022-12-10T12:32:34;97503.78;;;1.73;100.00
49843;BME280;55559;48.898;9.184;2022-12-10T12:35:09;97504.41;;;1.77;100.00
49843;BME280;55559;48.898;9.184;2022-12-10T12:37:44;97506.22;;;1.89;100.00
49843;BME280;55559;48.898;9.184;2022-12-10T12:40:16;97504.75;;;1.98;100.00
49843;BME280;55559;48.898;9.184;2022-12-10T12:42:53;97505.63;;;2.22;100.00
49843;BME280;55559;48.898;9.184;2022-12-10T12:45:31;97511.84;;;2.09;100.00
49843;BME280;55559;48.898;9.184;2022-12-10T12:48:10;97506.19;;;2.15;100.00
49843;BME280;55559;48.898;9.184;2022-12-10T12:50:44;97510.72;;;2.00;100.00
49843;BME280;55559;48.898;9.184;2022-12-10T12:53:17;97529.38;;;1.95;100.00
49843;BME280;55559;48.898;9.184;2022-12-10T12:55:56;97530.09;;;1.72;100.00
49843;BME280;55559;48.898;9.184;2022-12-10T12:58:32;97531.91;;;1.84;100.00
49843;BME280;55559;48.898;9.184;2022-12-10T13:01:07;97536.41;;;1.82;100.00
49843;BME280;55559;48.898;9.184;2022-12-10T13:03:41;97532.63;;;1.73;100.00
49843;BME280;55559;48.898;9.184;2022-12-10T13:06:14;97534.75;;;1.81;100.00
49843;BME280;55559;48.898;9.184;2022-12-10T13:08:46;97543.34;;;1.83;100.00
49843;BME280;55559;48.898;9.184;2022-12-10T13:11:19;97540.59;;;1.72;100.00
49843;BME280;55559;48.898;9.184;2022-12-10T13:14:32;97549.81;;;1.64;100.00
49843;BME280;55559;48.898;9.184;2022-12-10T13:17:27;97551.28;;;1.56;100.00
49843;BME280;55559;48.898;9.184;2022-12-10T13:20:29;97545.31;;;1.66;100.00
49843;BME280;55559;48.898;9.184;2022-12-10T13:22:58;97542.69;;;1.66;100.00